Time;durP1;ratioP1;P1;durP2;ratioP2;P2;SDS_P1;SDS_P2;PMS_P1;PMS_P2;Temp;Humidity;BMP_temperature;BMP_pressure;BME280_temperature;BME280_humidity;BME280_pressure;Samples;Min_cycle;Max_cycle;Signal;HPM_P1;HPM_P2
2023/04/10 00:02:24;;;;;;;11.77;8.38;;;4.90;99.90;;;4.31;100.00;97823.75;5005554;28;20030;-37
2023/04/10 00:04:50;;;;;;;10.55;7.88;;;4.90;99.90;;;4.32;100.00;97820.25;5006251;28;20041;-37
2023/04/10 00:07:16;;;;;;;11.70;7.80;;;4.90;99.90;;;4.30;100.00;97817.63;5004092;28;20375;-37
2023/04/10 00:09:41;;;;;;;11.65;7.82;;;4.90;99.90;;;4.26;100.00;97813.31;5003676;28;20034;-37
2023/04/10 00:12:07;;;;;;;13.57;7.57;;;4.90;99.90;;;4.23;100.00;97815.94;5005759;28;20407;-37
2023/04/10 00:14:33;;;;;;;12.82;8.13;;;4.90;99.90;;;4.20;100.00;97819.44;5009212;28;20036;-36
2023/04/10 00:16:59;;;;;;;11.75;7.90;;;4.90;99.90;;;4.19;100.00;97819.44;5007456;28;20087;-37
2023/04/10 00:19:25;;;;;;;12.10;7.80;;;4.80;99.90;;;4.11;100.00;97813.38;5004090;28;20305;-37
2023/04/10 00:21:50;;;;;;;12.30;8.27;;;4.80;99.90;;;4.10;100.00;97809.91;5003731;28;20041;-37
2023/04/10 00:24:16;;;;;;;10.95;7.78;;;4.70;99.90;;;4.10;100.00;97816.88;5003580;28;20034;-36
2023/04/10 00:26:42;;;;;;;12.65;8.40;;;4.70;99.90;;;4.07;100.00;97814.28;5009815;28;20473;-37
2023/04/10 00:29:08;;;;;;;10.57;7.15;;;4.70;99.90;;;4.07;100.00;97809.06;5003238;28;20038;-36
2023/04/10 00:31:33;;;;;;;13.52;8.75;;;4.70;99.90;;;3.87;100.00;97780.44;5004560;28;20651;-37
2023/04/10 00:33:59;;;;;;;12.80;8.60;;;4.60;99.90;;;3.99;100.00;97804.75;5015065;28;20030;-37
2023/04/10 00:36:25;;;;;;;11.95;8.10;;;4.70;99.90;;;3.96;100.00;97814.31;5012154;28;20068;-37
2023/04/10 00:38:51;;;;;;;10.88;7.65;;;4.60;99.90;;;3.95;100.00;97807.38;5008085;28;20119;-37
2023/04/10 00:41:17;;;;;;;12.55;7.97;;;4.60;99.90;;;3.92;100.00;97808.25;5007157;28;20104;-36
2023/04/10 00:43:43;;;;;;;11.20;8.07;;;4.60;99.90;;;3.89;100.00;97804.78;5001856;28;20448;-37
2023/04/10 00:46:10;;;;;;;11.77;8.27;;;4.60;99.90;;;3.90;100.00;97802.16;5005721;28;20508;-36
2023/04/10 00:48:36;;;;;;;12.52;8.02;;;4.50;99.90;;;3.84;100.00;97797.00;5010202;28;20164;-37
2023/04/10 00:51:03;;;;;;;14.18;8.82;;;4.50;99.90;;;3.80;100.00;97805.69;5014452;28;20057;-37
2023/04/10 00:53:28;;;;;;;12.45;8.55;;;4.50;99.90;;;3.76;100.00;97796.13;4989971;28;20036;-36
2023/04/10 00:55:55;;;;;;;11.32;7.63;;;4.40;99.90;;;3.69;100.00;97784.84;4989421;28;20187;-37
2023/04/10 00:58:21;;;;;;;11.90;7.57;;;4.40;99.90;;;3.54;100.00;97767.50;4989238;28;20047;-37
2023/04/10 01:00:47;;;;;;;13.18;8.70;;;4.40;99.90;;;3.70;100.00;97793.56;4994995;28;20025;-36
2023/04/10 01:03:16;;;;;;;12.50;8.18;;;4.40;99.90;;;3.68;100.00;97795.28;4999293;28;20713;-37
2023/04/10 01:05:57;;;;;;;11.13;7.32;;;4.30;99.90;;;3.66;100.00;97786.59;4978425;28;20608;-37
2023/04/10 01:09:26;;;;;;;11.60;7.63;;;4.30;99.90;;;3.59;100.00;97790.97;4980464;28;20033;-37
2023/04/10 01:12:45;;;;;;;11.32;7.82;;;4.30;99.90;;;3.51;100.00;97796.19;4988544;28;20089;-36
2023/04/10 01:15:16;;;;;;;13.88;8.45;;;4.20;99.90;;;3.50;100.00;97797.09;4982660;28;20045;-36
2023/04/10 01:18:07;;;;;;;13.30;7.97;;;4.20;99.90;;;3.45;100.00;97791.00;4980594;28;20143;-37
2023/04/10 01:20:38;;;;;;;11.93;7.90;;;4.10;99.90;;;3.48;100.00;97796.19;4985207;28;20029;-37
2023/04/10 01:23:31;;;;;;;13.82;8.38;;;4.10;99.90;;;3.50;100.00;97791.88;4987959;28;20126;-36
2023/04/10 01:26:16;;;;;;;12.68;7.93;;;4.20;99.90;;;3.51;100.00;97793.59;5003212;28;20087;-36
2023/04/10 01:29:03;;;;;;;12.32;8.52;;;4.20;99.90;;;3.51;100.00;97795.34;5009961;28;20041;-36
2023/04/10 01:31:41;;;;;;;12.68;7.95;;;4.20;99.90;;;3.52;100.00;97799.69;4985113;28;20740;-36
2023/04/10 01:34:16;;;;;;;13.13;8.05;;;4.20;99.90;;;3.51;100.00;97798.81;5006949;28;20033;-37
2023/04/10 01:36:56;;;;;;;12.52;9.10;;;4.20;99.90;;;3.51;100.00;97797.94;4993233;28;20034;-36
2023/04/10 01:39:23;;;;;;;12.40;7.95;;;4.20;99.90;;;3.44;100.00;97792.72;5003941;28;20195;-36
2023/04/10 01:41:51;;;;;;;11.30;7.38;;;4.20;99.90;;;3.52;100.00;97803.16;4999091;28;20076;-36
2023/04/10 01:44:24;;;;;;;11.90;7.38;;;4.20;99.90;;;3.50;100.00;97793.59;5001827;28;20033;-36
2023/04/10 01:46:52;;;;;;;12.85;8.35;;;4.20;99.90;;;3.43;100.00;97790.16;4981473;28;20485;-36
2023/04/10 01:49:18;;;;;;;11.18;7.80;;;4.10;99.90;;;3.33;100.00;97784.06;4965428;28;20029;-36
2023/04/10 01:51:45;;;;;;;12.25;8.20;;;4.10;99.90;;;3.25;100.00;97786.69;4963949;28;20348;-36
2023/04/10 01:54:12;;;;;;;12.05;7.90;;;4.00;99.90;;;3.22;100.00;97789.31;4982021;28;20124;-36
2023/04/10 01:56:38;;;;;;;12.30;8.20;;;4.00;99.90;;;3.19;100.00;97789.31;4981781;28;20072;-36
2023/04/10 01:59:04;;;;;;;12.45;8.70;;;3.90;99.90;;;3.19;100.00;97786.69;5003271;28;20034;-36
2023/04/10 02:01:30;;;;;;;10.85;7.57;;;3.90;99.90;;;3.17;100.00;97783.22;4980509;28;20037;-36
2023/04/10 02:03:57;;;;;;;11.52;7.65;;;3.90;99.90;;;3.14;100.00;97783.25;5001810;28;20025;-36
2023/04/10 02:06:56;;;;;;;10.75;7.60;;;3.90;99.90;;;3.15;100.00;97782.38;5004784;28;20595;-36
2023/04/10 02:09:35;;;;;;;13.40;8.35;;;3.90;99.90;;;3.10;100.00;97778.88;4988633;28;20245;-36
2023/04/10 02:12:06;;;;;;;14.00;8.68;;;3.80;99.90;;;3.04;100.00;97778.91;4987059;28;20156;-37
2023/04/10 02:14:35;;;;;;;14.40;8.82;;;3.70;99.90;;;3.06;100.00;97775.41;5009449;28;20055;-35
2023/04/10 02:17:02;;;;;;;10.30;7.95;;;3.70;99.90;;;3.03;100.00;97772.84;4997973;28;20037;-37
2023/04/10 02:19:30;;;;;;;12.93;8.75;;;3.80;99.90;;;3.00;100.00;97765.03;5009643;28;20026;-36
2023/04/10 02:21:57;;;;;;;14.55;9.25;;;3.70;99.90;;;3.03;100.00;97777.16;4983354;28;20433;-37
2023/04/10 02:24:24;;;;;;;11.75;8.35;;;3.70;99.90;;;3.02;100.00;97780.66;5006863;28;20037;-36
2023/04/10 02:26:52;;;;;;;12.55;8.07;;;3.70;99.90;;;3.05;100.00;97785.84;5001531;28;20037;-36
2023/04/10 02:29:18;;;;;;;11.80;7.88;;;3.70;99.90;;;3.04;100.00;97784.97;5001628;28;20124;-37
2023/04/10 02:31:46;;;;;;;11.77;8.07;;;3.70;99.90;;;3.03;100.00;97779.78;5000768;28;20478;-37
2023/04/10 02:34:12;;;;;;;11.40;7.72;;;3.70;99.90;;;3.08;100.00;97782.38;5011074;28;20096;-36
2023/04/10 02:36:38;;;;;;;12.32;8.02;;;3.70;99.90;;;3.04;100.00;97781.53;5006123;28;20516;-37
2023/04/10 02:39:06;;;;;;;15.27;9.02;;;3.70;99.90;;;3.04;100.00;97779.78;5004709;28;20037;-36
2023/04/10 02:44:02;;;;;;;12.48;8.40;;;3.70;99.90;;;2.99;100.00;97785.84;5020820;28;20458;-49
2023/04/10 02:46:27;;;;;;;11.55;7.97;;;3.70;99.90;;;2.94;100.00;97790.19;5019865;28;20029;-51
2023/04/10 02:48:53;;;;;;;12.20;7.32;;;3.60;99.90;;;2.86;100.00;97791.06;5027869;28;20028;-49
2023/04/10 02:51:19;;;;;;;12.00;8.45;;;3.60;99.90;;;2.79;100.00;97786.72;5021971;28;20028;-50
2023/04/10 02:53:45;;;;;;;11.35;8.27;;;3.50;99.90;;;2.74;100.00;97787.59;5031286;28;20075;-51
2023/04/10 02:56:11;;;;;;;11.77;8.10;;;3.50;99.90;;;2.70;100.00;97793.69;5026231;28;20454;-52
2023/04/10 02:58:38;;;;;;;12.48;8.48;;;3.50;99.90;;;2.66;100.00;97783.25;5022415;28;20972;-50
2023/04/10 03:01:08;;;;;;;12.93;8.27;;;3.40;99.90;;;2.65;100.00;97791.94;5020798;28;20029;-50
2023/04/10 03:03:34;;;;;;;11.80;8.43;;;3.40;99.90;;;2.70;100.00;97802.34;5020816;28;20037;-52
2023/04/10 03:05:59;;;;;;;13.57;8.10;;;3.40;99.90;;;2.71;100.00;97798.91;5020853;28;20492;-50
2023/04/10 03:08:25;;;;;;;12.23;8.23;;;3.40;99.90;;;2.70;100.00;97791.09;5020498;28;20489;-49
2023/04/10 03:10:51;;;;;;;13.35;8.65;;;3.40;99.90;;;2.69;100.00;97795.41;5016819;28;20071;-50
2023/04/10 03:13:16;;;;;;;11.10;8.02;;;3.40;99.90;;;2.71;100.00;97793.69;5020370;28;20047;-49
2023/04/10 03:15:42;;;;;;;13.88;8.52;;;3.40;99.90;;;2.72;100.00;97789.34;5020708;28;21648;-50
2023/04/10 03:18:08;;;;;;;12.27;8.27;;;3.40;99.90;;;2.68;100.00;97778.06;5024005;28;20622;-49
2023/04/10 03:20:37;;;;;;;15.35;8.93;;;3.40;99.90;;;2.73;100.00;97780.63;5022233;28;20064;-49
2023/04/10 03:23:04;;;;;;;12.07;7.65;;;3.40;99.90;;;2.74;100.00;97783.25;5023712;28;20064;-49
2023/04/10 03:25:33;;;;;;;12.73;8.23;;;3.40;99.90;;;2.74;100.00;97774.56;5023018;28;20040;-49
2023/04/10 03:27:58;;;;;;;12.48;7.90;;;3.40;99.90;;;2.75;100.00;97771.13;5031961;28;20029;-48
2023/04/10 03:30:24;;;;;;;11.13;7.93;;;3.40;99.90;;;2.75;100.00;97768.50;5032735;28;20469;-50
2023/04/10 03:32:50;;;;;;;11.57;7.93;;;3.50;99.90;;;2.75;100.00;97771.13;5039432;28;20091;-52
2023/04/10 03:35:15;;;;;;;10.98;7.95;;;3.50;99.90;;;2.68;100.00;97754.63;5026473;28;20083;-48
2023/04/10 03:37:41;;;;;;;11.85;7.75;;;3.50;99.90;;;2.73;100.00;97765.00;5020741;28;20041;-50
2023/04/10 03:40:08;;;;;;;13.55;8.60;;;3.40;99.90;;;2.67;100.00;97761.56;5023146;28;20638;-53
2023/04/10 03:42:34;;;;;;;12.00;8.13;;;3.40;99.90;;;2.67;100.00;97758.06;5030839;28;20072;-50
2023/04/10 03:45:03;;;;;;;14.48;8.32;;;3.40;99.90;;;2.66;100.00;97753.75;5029836;28;20029;-50
2023/04/10 03:47:33;;;;;;;13.35;8.07;;;3.40;99.90;;;2.64;100.00;97755.50;5030910;28;20029;-50
2023/04/10 03:49:59;;;;;;;11.32;8.43;;;3.30;99.90;;;2.58;100.00;97751.13;5033550;28;20116;-48
2023/04/10 03:52:26;;;;;;;11.57;7.35;;;3.30;99.90;;;2.53;100.00;97747.69;5032390;28;20043;-50
2023/04/10 03:54:53;;;;;;;13.02;8.60;;;3.20;99.90;;;2.51;100.00;97756.34;5030657;28;20748;-47
2023/04/10 03:57:20;;;;;;;9.95;7.03;;;3.30;99.90;;;2.51;100.00;97752.00;5026573;28;20095;-48
2023/04/10 03:59:48;;;;;;;12.38;7.90;;;3.20;99.90;;;2.51;100.00;97753.72;5028826;28;20477;-49
2023/04/10 04:02:14;;;;;;;11.90;8.13;;;3.20;99.90;;;2.48;100.00;97752.88;5032652;28;20037;-52
2023/04/10 04:04:40;;;;;;;12.43;8.18;;;3.20;99.90;;;2.46;100.00;97745.94;5030378;28;22001;-48
2023/04/10 04:07:06;;;;;;;11.45;7.78;;;3.20;99.90;;;2.41;100.00;97748.53;5034565;28;20036;-47
2023/04/10 04:09:31;;;;;;;15.30;8.95;;;3.20;99.90;;;2.38;100.00;97745.91;5039751;28;20412;-49
2023/04/10 04:11:57;;;;;;;13.00;8.60;;;3.10;99.90;;;2.40;100.00;97746.78;5031443;28;20155;-47
2023/04/10 04:14:23;;;;;;;14.27;8.90;;;3.10;99.90;;;2.41;100.00;97738.09;5035301;28;20613;-48
2023/04/10 04:16:49;;;;;;;14.55;8.45;;;3.10;99.90;;;2.37;100.00;97738.97;5031486;28;20182;-50
2023/04/10 04:19:15;;;;;;;13.27;8.85;;;3.10;99.90;;;2.39;100.00;97736.38;5032297;28;20546;-51
2023/04/10 04:21:41;;;;;;;13.55;9.05;;;3.10;99.90;;;2.39;100.00;97737.25;5029612;28;20352;-50
2023/04/10 04:24:06;;;;;;;16.98;9.23;;;3.20;99.90;;;2.37;100.00;97735.50;5030078;28;20076;-49
2023/04/10 04:26:32;;;;;;;13.57;9.13;;;3.10;99.90;;;2.36;100.00;97733.78;5030790;28;20033;-50
2023/04/10 04:28:58;;;;;;;15.65;9.32;;;3.10;99.90;;;2.34;100.00;97728.56;5029601;28;20396;-50
2023/04/10 04:31:24;;;;;;;14.52;9.20;;;3.10;99.90;;;2.32;100.00;97734.63;5032025;28;20326;-49
2023/04/10 04:33:49;;;;;;;15.75;9.30;;;3.10;99.90;;;2.16;100.00;97708.59;5032801;28;20461;-49
2023/04/10 04:36:15;;;;;;;15.55;9.82;;;3.10;99.90;;;2.30;100.00;97734.63;5031475;28;20044;-47
2023/04/10 04:38:41;;;;;;;14.00;8.85;;;3.10;99.90;;;2.33;100.00;97736.34;5033377;28;20024;-50
2023/04/10 04:41:07;;;;;;;14.70;8.57;;;3.10;99.90;;;2.33;100.00;97738.97;5031722;28;20231;-50
2023/04/10 04:43:33;;;;;;;13.95;8.93;;;3.10;99.90;;;2.33;100.00;97742.44;5034166;28;20500;-48
2023/04/10 04:45:58;;;;;;;13.68;9.10;;;3.10;99.90;;;2.32;100.00;97735.50;5031888;28;20071;-51
2023/04/10 04:48:24;;;;;;;13.73;9.25;;;3.10;99.90;;;2.33;100.00;97738.97;5039538;28;20036;-49
2023/04/10 04:50:50;;;;;;;14.40;9.38;;;3.10;99.90;;;2.30;100.00;97729.44;5037078;28;20041;-51
2023/04/10 04:53:15;;;;;;;13.25;8.73;;;3.00;99.90;;;2.34;100.00;97730.31;5039718;28;20522;-50
2023/04/10 04:55:41;;;;;;;13.02;8.93;;;3.10;99.90;;;2.36;100.00;97728.56;5039160;28;20044;-51
2023/04/10 04:58:07;;;;;;;15.45;9.43;;;3.10;99.90;;;2.39;100.00;97731.19;5035853;28;20032;-50
2023/04/10 05:00:32;;;;;;;13.20;9.00;;;3.10;99.90;;;2.40;100.00;97733.75;5031215;28;20147;-50
2023/04/10 05:02:58;;;;;;;12.50;8.77;;;3.10;99.90;;;2.43;100.00;97727.69;5032054;28;20091;-48
2023/04/10 05:05:24;;;;;;;12.77;8.85;;;3.20;99.90;;;2.48;100.00;97739.84;5031838;28;20508;-49
2023/04/10 05:07:50;;;;;;;15.60;8.85;;;3.20;99.90;;;2.48;100.00;97720.78;5036046;28;20507;-50
2023/04/10 05:10:16;;;;;;;13.45;8.75;;;3.30;99.90;;;2.61;100.00;97732.03;5032321;28;20045;-49
2023/04/10 05:12:42;;;;;;;15.50;8.95;;;3.30;99.90;;;2.57;100.00;97714.69;5030244;28;20312;-50
2023/04/10 05:15:08;;;;;;;16.27;8.73;;;3.40;99.90;;;2.81;100.00;97738.09;5031088;28;20499;-50
2023/04/10 05:17:34;;;;;;;15.75;8.88;;;3.50;99.90;;;2.91;100.00;97735.47;5038641;28;20048;-50
2023/04/10 05:20:00;;;;;;;15.52;8.77;;;3.60;99.90;;;3.00;100.00;97738.97;5032928;28;20021;-50
2023/04/10 05:22:27;;;;;;;14.63;9.45;;;3.70;99.90;;;3.09;100.00;97734.59;5033565;28;20036;-49
2023/04/10 05:24:54;;;;;;;11.75;8.00;;;3.80;99.90;;;3.22;100.00;97739.78;5030665;28;20029;-47
2023/04/10 05:27:20;;;;;;;13.73;8.38;;;3.90;99.90;;;3.31;100.00;97735.44;5032010;28;20114;-49
2023/04/10 05:29:46;;;;;;;11.43;8.07;;;4.00;99.90;;;3.40;100.00;97741.47;5030734;28;20044;-49
2023/04/10 05:32:13;;;;;;;12.35;7.95;;;4.10;99.90;;;3.52;100.00;97748.41;5027905;28;20029;-50
2023/04/10 05:34:39;;;;;;;12.63;7.88;;;4.20;99.90;;;3.62;100.00;97742.28;5027911;28;20163;-50
2023/04/10 05:37:04;;;;;;;11.00;7.68;;;4.40;99.90;;;3.79;100.00;97739.59;5033984;28;20021;-49
2023/04/10 05:39:30;;;;;;;10.75;7.55;;;4.50;99.90;;;3.96;100.00;97741.25;5030913;28;20110;-49
2023/04/10 05:41:57;;;;;;;11.88;7.85;;;4.60;99.90;;;4.09;100.00;97729.88;5030145;28;20021;-50
2023/04/10 05:44:23;;;;;;;11.98;7.53;;;4.80;99.90;;;4.20;100.00;97733.28;5031412;28;21502;-49
2023/04/10 05:46:48;;;;;;;11.57;8.00;;;4.90;99.90;;;4.39;100.00;97743.59;5032481;28;20054;-50
2023/04/10 05:49:15;;;;;;;10.82;7.50;;;5.00;99.90;;;4.51;100.00;97735.69;5042686;28;20136;-50
2023/04/10 05:51:41;;;;;;;11.77;6.80;;;5.10;99.90;;;4.68;100.00;97740.75;5028524;28;20133;-49
2023/04/10 05:54:07;;;;;;;9.95;6.80;;;5.30;99.90;;;4.82;100.00;97745.03;5035878;28;20028;-50
2023/04/10 05:56:33;;;;;;;10.10;6.80;;;5.40;99.90;;;4.95;100.00;97744.03;5036333;28;20396;-51
2023/04/10 05:58:58;;;;;;;10.13;6.88;;;5.50;99.90;;;5.07;100.00;97750.91;5036794;28;20022;-50
2023/04/10 06:01:24;;;;;;;10.27;6.78;;;5.60;99.90;;;5.14;100.00;97742.97;5036782;28;20028;-50
2023/04/10 06:03:50;;;;;;;9.95;6.57;;;5.70;99.90;;;5.25;100.00;97748.09;5032457;28;20433;-50
2023/04/10 06:06:16;;;;;;;10.70;7.47;;;5.80;99.90;;;5.32;100.00;97755.00;5038870;28;20040;-50
2023/04/10 06:08:42;;;;;;;12.60;7.15;;;5.90;99.90;;;5.41;100.00;97748.81;5028492;28;20297;-51
2023/04/10 06:11:08;;;;;;;9.90;6.47;;;6.00;99.90;;;5.51;100.00;97749.59;5034978;28;20492;-50
2023/04/10 06:13:33;;;;;;;10.25;7.03;;;6.10;99.90;;;5.59;100.00;97762.56;5032536;28;20079;-51
2023/04/10 06:15:59;;;;;;;8.40;5.93;;;6.20;99.90;;;5.66;100.00;97757.25;5029282;28;20040;-50
2023/04/10 06:18:25;;;;;;;8.85;6.45;;;6.20;99.90;;;5.68;100.00;97752.00;5034441;28;20492;-50
2023/04/10 06:20:50;;;;;;;10.13;6.45;;;6.30;99.90;;;5.71;100.00;97754.59;5027479;28;20512;-50
2023/04/10 06:23:16;;;;;;;8.05;5.95;;;6.30;99.90;;;5.74;100.00;97744.06;5030836;28;20488;-50
2023/04/10 06:25:42;;;;;;;7.70;5.68;;;6.30;99.90;;;5.76;100.00;97754.50;5030623;28;20159;-49
2023/04/10 06:28:08;;;;;;;8.45;6.28;;;6.30;99.90;;;5.75;100.00;97753.66;5037067;28;20392;-50
2023/04/10 06:30:36;;;;;;;9.68;6.13;;;6.30;99.90;;;5.72;100.00;97761.53;5029478;28;20031;-49
2023/04/10 06:33:01;;;;;;;9.00;6.40;;;6.30;99.90;;;5.73;100.00;97751.06;5033731;28;20033;-50
2023/04/10 06:35:27;;;;;;;12.82;6.40;;;6.30;99.90;;;5.75;100.00;97751.03;5035711;28;20033;-48
2023/04/10 06:37:53;;;;;;;9.93;7.05;;;6.30;99.90;;;5.77;100.00;97751.03;5029559;28;20387;-50
2023/04/10 06:40:18;;;;;;;8.98;6.45;;;6.40;99.90;;;5.69;100.00;97741.53;5028881;28;20029;-49
2023/04/10 06:42:44;;;;;;;10.05;6.47;;;6.30;99.90;;;5.75;100.00;97748.44;5026483;28;20032;-49
2023/04/10 06:45:10;;;;;;;8.75;6.50;;;6.40;99.90;;;5.82;100.00;97738.75;5019121;28;21059;-50
2023/04/10 06:47:36;;;;;;;10.10;6.90;;;6.40;99.90;;;5.82;100.00;97737.00;5031108;28;20072;-48
2023/04/10 06:50:01;;;;;;;10.00;7.15;;;6.50;99.90;;;5.94;100.00;97743.84;5033612;28;20104;-50
2023/04/10 06:52:27;;;;;;;11.45;7.47;;;6.50;99.90;;;6.10;100.00;97753.25;5029730;28;20503;-50
2023/04/10 06:54:53;;;;;;;12.07;7.70;;;6.70;99.90;;;6.13;99.97;97751.47;5031208;28;20112;-49
2023/04/10 06:57:18;;;;;;;7.97;6.60;;;6.80;99.90;;;6.28;99.98;97749.50;5030398;28;20040;-49
2023/04/10 06:59:44;;;;;;;12.55;7.18;;;6.90;99.90;;;6.38;99.93;97749.38;5022992;28;20056;-50
2023/04/10 07:02:10;;;;;;;11.35;7.55;;;7.00;99.90;;;6.50;97.16;97744.81;5031796;28;20108;-50
2023/04/10 07:04:36;;;;;;;9.90;7.45;;;7.10;99.90;;;6.63;96.06;97744.63;5034211;28;20033;-49
2023/04/10 07:07:01;;;;;;;9.90;7.25;;;7.20;99.90;;;6.72;94.65;97738.38;5038075;28;20079;-50
2023/04/10 07:09:29;;;;;;;8.88;6.60;;;7.30;99.90;;;6.84;93.67;97738.19;5038084;28;20477;-51
2023/04/10 07:11:55;;;;;;;9.25;7.13;;;7.40;99.90;;;6.95;89.45;97735.38;5036836;28;20037;-45
2023/04/10 07:14:21;;;;;;;11.65;6.40;;;7.60;99.90;;;7.11;86.24;97738.59;5029627;28;20495;-47
2023/04/10 07:16:48;;;;;;;10.25;6.72;;;7.70;99.90;;;7.19;81.97;97731.44;5031608;28;20048;-46
2023/04/10 07:19:14;;;;;;;9.00;6.18;;;7.80;99.90;;;7.30;80.05;97742.59;5039165;28;20079;-48
2023/04/10 07:21:40;;;;;;;8.85;6.00;;;7.90;99.90;;;7.38;78.62;97729.38;5037981;28;20357;-48
2023/04/10 07:24:06;;;;;;;9.30;6.20;;;8.00;99.90;;;7.44;77.81;97740.59;5032226;28;20032;-48
2023/04/10 07:26:31;;;;;;;9.68;6.70;;;8.10;99.90;;;7.57;77.84;97729.84;5031096;28;20029;-48
2023/04/10 07:28:57;;;;;;;9.73;6.68;;;8.20;99.90;;;7.73;76.59;97726.03;5034691;28;20044;-49
2023/04/10 07:31:23;;;;;;;9.82;5.97;;;8.30;99.90;;;7.82;75.93;97730.22;5028687;28;20385;-48
2023/04/10 07:33:48;;;;;;;11.32;6.88;;;8.40;99.90;;;7.99;72.91;97741.25;5034624;28;20041;-51
2023/04/10 07:36:14;;;;;;;7.03;6.00;;;8.60;99.90;;;8.11;70.21;97742.75;5035407;28;20500;-51
2023/04/10 07:38:41;;;;;;;7.90;5.60;;;8.70;99.90;;;8.25;69.40;97736.31;5028191;28;20041;-50
2023/04/10 07:41:08;;;;;;;7.85;5.43;;;8.80;99.90;;;8.36;67.49;97737.81;5036717;28;20481;-52
2023/04/10 07:43:34;;;;;;;8.45;6.15;;;8.90;99.90;;;8.51;66.49;97739.25;5033838;28;20477;-50
2023/04/10 07:45:59;;;;;;;7.00;5.40;;;9.10;99.90;;;8.67;66.58;97731.88;5030493;28;20029;-53
2023/04/10 07:48:25;;;;;;;9.00;6.00;;;9.20;99.90;;;8.79;63.41;97728.97;5037899;28;20044;-50
2023/04/10 07:50:51;;;;;;;9.13;5.97;;;9.40;99.90;;;8.92;63.56;97731.28;5032386;28;20037;-51
2023/04/10 07:53:17;;;;;;;9.77;5.95;;;9.50;99.90;;;9.04;62.20;97743.25;5031964;28;20048;-51
2023/04/10 07:55:47;;;;;;;7.40;5.57;;;9.50;99.90;;;9.07;61.56;97735.28;5031594;28;20044;-51
2023/04/10 07:58:13;;;;;;;7.60;5.80;;;9.60;99.90;;;9.22;61.31;97720.88;5031554;28;20041;-52
2023/04/10 08:00:39;;;;;;;7.93;5.53;;;9.70;99.90;;;9.43;61.54;97733.44;5032556;28;20515;-51
2023/04/10 08:03:05;;;;;;;7.43;4.70;;;9.90;99.90;;;9.58;57.69;97737.44;5023155;28;20025;-51
2023/04/10 08:05:31;;;;;;;7.72;4.88;;;10.10;99.90;;;9.72;57.47;97730.00;5028743;28;20037;-51
2023/04/10 08:07:56;;;;;;;7.60;5.65;;;10.20;99.90;;;9.87;57.45;97739.25;5032755;28;20036;-51
2023/04/10 08:10:22;;;;;;;5.97;4.55;;;10.40;99.90;;;10.02;56.40;97735.31;5037007;28;20063;-49
2023/04/10 08:12:48;;;;;;;7.35;5.32;;;10.50;99.90;;;10.19;55.97;97732.16;5024023;28;20408;-51
2023/04/10 08:15:13;;;;;;;8.77;4.88;;;10.70;99.90;;;10.34;55.00;97732.63;5030272;28;20041;-51
2023/04/10 08:17:39;;;;;;;6.22;4.45;;;10.80;99.90;;;10.45;53.58;97731.41;5033168;28;20413;-52
2023/04/10 08:20:06;;;;;;;5.38;4.07;;;10.90;99.90;;;10.60;53.06;97726.56;5030106;28;20033;-49
2023/04/10 08:22:31;;;;;;;6.72;4.80;;;11.00;99.90;;;10.80;51.82;97729.44;5029690;28;20469;-53
2023/04/10 08:24:57;;;;;;;5.97;4.53;;;11.20;99.90;;;10.86;51.64;97726.59;5027339;28;20033;-52
2023/04/10 08:27:23;;;;;;;5.82;4.13;;;11.30;99.90;;;10.99;51.18;97736.75;5020364;28;20033;-53
2023/04/10 08:29:48;;;;;;;4.90;4.05;;;11.40;99.90;;;11.17;51.60;97728.19;5026453;28;20114;-51
2023/04/10 08:32:14;;;;;;;5.45;3.78;;;11.50;99.90;;;11.19;50.12;97729.00;5027070;28;20037;-47
2023/04/10 08:34:40;;;;;;;7.07;4.55;;;11.70;99.10;;;11.17;51.77;97720.28;5030051;28;20020;-49
2023/04/10 08:37:08;;;;;;;5.95;4.10;;;11.70;99.10;;;11.26;50.50;97717.31;5031444;28;20376;-45
2023/04/10 08:39:35;;;;;;;6.78;4.00;;;11.70;98.90;;;11.22;50.59;97705.16;5027345;28;20485;-51
2023/04/10 08:42:01;;;;;;;6.25;4.15;;;11.70;98.70;;;11.31;49.76;97713.69;5045153;23;20184;-39
2023/04/10 08:44:27;;;;;;;6.32;4.32;;;11.80;98.60;;;11.46;50.36;97727.19;5006959;28;20239;-39
2023/04/10 08:46:58;;;;;;;5.10;3.78;;;11.80;98.60;;;11.51;50.20;97719.09;5004633;28;20453;-38
2023/04/10 08:49:40;;;;;;;4.93;3.78;;;11.90;98.60;;;11.59;48.63;97713.53;5014384;28;20504;-38
2023/04/10 08:52:08;;;;;;;5.15;3.47;;;12.00;97.10;;;11.55;49.82;97691.66;5015400;28;20051;-38
2023/04/10 08:54:37;;;;;;;4.22;3.58;;;12.00;97.80;;;11.71;47.91;97718.38;4990225;28;20042;-38
2023/04/10 08:57:06;;;;;;;4.45;3.30;;;12.10;96.70;;;11.82;48.16;97707.41;4997486;28;20375;-38
2023/04/10 08:59:32;;;;;;;5.05;3.67;;;12.30;96.60;;;12.01;48.30;97708.50;4986452;28;20045;-39
2023/04/10 09:01:58;;;;;;;5.85;3.72;;;12.30;96.80;;;12.07;47.86;97711.81;4990033;28;20072;-38
2023/04/10 09:04:25;;;;;;;4.22;2.92;;;12.50;96.30;;;12.08;46.62;97713.53;4985411;28;20026;-39
2023/04/10 09:06:52;;;;;;;4.60;3.42;;;12.50;95.30;;;12.02;46.76;97712.88;4988962;28;20034;-39
2023/04/10 09:09:18;;;;;;;4.85;3.30;;;12.40;95.30;;;11.99;47.17;97701.56;4999193;28;20086;-39
2023/04/10 09:11:55;;;;;;;3.92;2.95;;;12.40;95.40;;;12.07;47.61;97707.38;4991769;28;20038;-39
2023/04/10 09:14:28;;;;;;;4.32;2.90;;;12.50;95.50;;;12.14;46.90;97708.88;4996657;28;20068;-39
2023/04/10 09:17:15;;;;;;;4.53;3.22;;;12.50;94.90;;;12.25;46.25;97705.81;4989238;28;20136;-39
2023/04/10 09:19:41;;;;;;;8.10;3.25;;;12.60;94.70;;;12.14;46.00;97678.94;4982419;28;20041;-39
2023/04/10 09:22:07;;;;;;;4.82;3.10;;;12.70;94.40;;;12.34;46.45;97713.41;4976258;28;20036;-39
2023/04/10 09:24:39;;;;;;;4.55;3.00;;;12.70;94.40;;;12.38;46.99;97707.09;4988232;28;20038;-39
2023/04/10 09:27:06;;;;;;;4.38;3.03;;;12.80;94.60;;;12.35;45.00;97704.56;4988525;28;20052;-37
2023/04/10 09:29:42;;;;;;;3.30;2.67;;;12.80;93.30;;;12.33;45.78;97701.09;4993264;28;20057;-37
2023/04/10 09:32:08;;;;;;;3.88;2.92;;;12.80;93.70;;;12.44;45.77;97698.03;4986909;28;20065;-38
2023/04/10 09:34:52;;;;;;;4.50;3.13;;;12.80;93.60;;;12.49;46.28;97688.16;4983801;28;20042;-37
2023/04/10 09:37:21;;;;;;;3.40;2.88;;;12.90;94.20;;;12.52;44.87;97681.84;4986789;28;20034;-37
2023/04/10 09:39:47;;;;;;;3.03;2.42;;;13.00;93.00;;;12.62;45.72;97677.06;4985489;28;20053;-38
2023/04/10 09:42:13;;;;;;;3.47;3.15;;;13.00;92.80;;;12.88;43.94;97675.97;4992301;28;20037;-38
2023/04/10 09:44:40;;;;;;;3.17;2.60;;;13.10;92.30;;;12.87;44.45;97671.63;4987262;28;20497;-38
2023/04/10 09:47:12;;;;;;;3.45;2.80;;;13.30;92.40;;;12.94;44.23;97666.00;4993524;28;20492;-38
2023/04/10 09:49:52;;;;;;;3.67;2.55;;;13.40;92.10;;;13.05;43.69;97664.69;4991236;28;20038;-38
2023/04/10 09:52:27;;;;;;;4.68;2.50;;;13.50;91.40;;;13.13;44.88;97657.25;4990074;28;20504;-38
2023/04/10 09:54:56;;;;;;;3.88;2.30;;;13.50;92.30;;;13.22;42.87;97650.72;4967929;28;20045;-38
2023/04/10 09:57:24;;;;;;;2.78;2.47;;;13.60;91.00;;;13.32;42.18;97647.63;4977290;28;20038;-37
2023/04/10 09:59:53;;;;;;;3.42;2.35;;;13.60;90.20;;;13.32;42.25;97642.31;4985609;28;20049;-37
2023/04/10 10:02:22;;;;;;;3.72;2.67;;;13.70;90.00;;;13.35;43.06;97644.84;4974462;28;20036;-37
2023/04/10 10:04:50;;;;;;;3.25;2.35;;;13.80;90.90;;;13.47;42.41;97640.78;4968221;28;20076;-38
2023/04/10 10:07:19;;;;;;;3.95;2.40;;;13.80;90.20;;;13.64;41.39;97633.84;4980404;28;20058;-38
2023/04/10 10:09:47;;;;;;;3.63;2.40;;;13.90;89.50;;;13.69;41.61;97637.16;4981832;28;20456;-38
2023/04/10 10:12:20;;;;;;;3.42;2.40;;;14.10;88.40;;;13.80;41.74;97634.88;4979971;28;20080;-39
2023/04/10 10:15:00;;;;;;;3.35;2.35;;;14.20;88.80;;;13.91;41.25;97627.28;4984136;28;20031;-38
2023/04/10 10:17:38;;;;;;;3.65;2.40;;;14.30;88.60;;;14.04;40.91;97626.72;5003532;28;20696;-40
2023/04/10 10:20:08;;;;;;;4.90;2.72;;;14.40;86.80;;;14.15;41.86;97628.84;4983370;28;20139;-38
2023/04/10 10:22:36;;;;;;;3.15;2.35;;;14.50;88.10;;;14.06;40.12;97595.69;4987170;28;20026;-37
2023/04/10 10:25:02;;;;;;;3.25;2.53;;;14.60;84.50;;;14.31;40.15;97617.44;4977572;28;20026;-40
2023/04/10 10:27:33;;;;;;;3.45;2.50;;;14.60;84.80;;;14.41;38.59;97607.25;4989189;28;20560;-40